sensor_id;sensor_type;location;lat;lon;timestamp;P1;durP1;ratioP1;P2;durP2;ratioP2
16760;SDS011;8498;52.516;13.790;2023-02-05T00:05:13;13.30;;;5.80;;
16760;SDS011;8498;52.516;13.790;2023-02-05T00:10:36;22.13;;;7.97;;
16760;SDS011;8498;52.516;13.790;2023-02-05T00:15:58;15.37;;;6.97;;
16760;SDS011;8498;52.516;13.790;2023-02-05T00:21:21;13.77;;;8.00;;
16760;SDS011;8498;52.516;13.790;2023-02-05T00:26:44;36.53;;;13.47;;
16760;SDS011;8498;52.516;13.790;2023-02-05T00:32:07;36.90;;;13.80;;
16760;SDS011;8498;52.516;13.790;2023-02-05T00:37:29;75.87;;;22.47;;
16760;SDS011;8498;52.516;13.790;2023-02-05T00:42:51;51.23;;;17.17;;
16760;SDS011;8498;52.516;13.790;2023-02-05T00:48:14;48.90;;;18.40;;
16760;SDS011;8498;52.516;13.790;2023-02-05T00:53:37;66.10;;;16.10;;
16760;SDS011;8498;52.516;13.790;2023-02-05T00:58:59;52.40;;;15.50;;
16760;SDS011;8498;52.516;13.790;2023-02-05T01:04:21;41.93;;;12.47;;
16760;SDS011;8498;52.516;13.790;2023-02-05T01:09:44;17.67;;;8.23;;
16760;SDS011;8498;52.516;13.790;2023-02-05T01:15:07;16.17;;;7.67;;
16760;SDS011;8498;52.516;13.790;2023-02-05T01:20:30;19.40;;;7.97;;
16760;SDS011;8498;52.516;13.790;2023-02-05T01:25:53;18.73;;;7.17;;
16760;SDS011;8498;52.516;13.790;2023-02-05T01:31:15;17.53;;;7.33;;
16760;SDS011;8498;52.516;13.790;2023-02-05T01:36:38;17.57;;;7.10;;
16760;SDS011;8498;52.516;13.790;2023-02-05T01:42:00;11.93;;;7.93;;
16760;SDS011;8498;52.516;13.790;2023-02-05T01:47:23;15.53;;;6.10;;
16760;SDS011;8498;52.516;13.790;2023-02-05T01:52:45;18.53;;;6.83;;
16760;SDS011;8498;52.516;13.790;2023-02-05T01:58:08;16.53;;;7.60;;
16760;SDS011;8498;52.516;13.790;2023-02-05T02:03:30;12.87;;;6.63;;
16760;SDS011;8498;52.516;13.790;2023-02-05T02:08:53;17.87;;;7.30;;
16760;SDS011;8498;52.516;13.790;2023-02-05T02:14:16;19.70;;;7.63;;
16760;SDS011;8498;52.516;13.790;2023-02-05T02:19:43;10.10;;;6.03;;
16760;SDS011;8498;52.516;13.790;2023-02-05T02:31:09;8.93;;;5.73;;
16760;SDS011;8498;52.516;13.790;2023-02-05T02:36:33;13.97;;;6.00;;
16760;SDS011;8498;52.516;13.790;2023-02-05T02:42:15;11.53;;;5.40;;
16760;SDS011;8498;52.516;13.790;2023-02-05T02:47:45;12.00;;;6.07;;
16760;SDS011;8498;52.516;13.790;2023-02-05T02:53:19;12.07;;;5.73;;
16760;SDS011;8498;52.516;13.790;2023-02-05T02:58:46;11.90;;;5.77;;
16760;SDS011;8498;52.516;13.790;2023-02-05T03:04:14;13.03;;;5.27;;
16760;SDS011;8498;52.516;13.790;2023-02-05T03:09:55;15.10;;;6.77;;
16760;SDS011;8498;52.516;13.790;2023-02-05T03:15:23;14.00;;;6.20;;
16760;SDS011;8498;52.516;13.790;2023-02-05T03:20:53;14.73;;;6.07;;
16760;SDS011;8498;52.516;13.790;2023-02-05T03:26:21;10.20;;;6.17;;
16760;SDS011;8498;52.516;13.790;2023-02-05T03:37:45;13.33;;;6.40;;
16760;SDS011;8498;52.516;13.790;2023-02-05T03:43:12;14.23;;;6.30;;
16760;SDS011;8498;52.516;13.790;2023-02-05T03:54:46;14.40;;;6.17;;
16760;SDS011;8498;52.516;13.790;2023-02-05T04:00:22;16.13;;;6.83;;
16760;SDS011;8498;52.516;13.790;2023-02-05T04:05:47;13.27;;;6.77;;
16760;SDS011;8498;52.516;13.790;2023-02-05T04:11:11;13.60;;;6.10;;
16760;SDS011;8498;52.516;13.790;2023-02-05T04:16:36;14.27;;;7.57;;
16760;SDS011;8498;52.516;13.790;2023-02-05T04:21:59;18.40;;;7.23;;
16760;SDS011;8498;52.516;13.790;2023-02-05T04:27:24;15.20;;;6.67;;
16760;SDS011;8498;52.516;13.790;2023-02-05T04:32:48;12.50;;;5.73;;
16760;SDS011;8498;52.516;13.790;2023-02-05T04:38:12;13.40;;;6.60;;
16760;SDS011;8498;52.516;13.790;2023-02-05T04:43:34;10.50;;;5.77;;
16760;SDS011;8498;52.516;13.790;2023-02-05T04:48:57;14.53;;;6.40;;
16760;SDS011;8498;52.516;13.790;2023-02-05T04:54:19;14.17;;;6.63;;
16760;SDS011;8498;52.516;13.790;2023-02-05T04:59:41;8.80;;;4.93;;
16760;SDS011;8498;52.516;13.790;2023-02-05T05:05:04;9.53;;;5.60;;
16760;SDS011;8498;52.516;13.790;2023-02-05T05:10:28;15.63;;;6.03;;
16760;SDS011;8498;52.516;13.790;2023-02-05T05:15:54;9.83;;;5.27;;
16760;SDS011;8498;52.516;13.790;2023-02-05T05:21:17;6.73;;;4.57;;
16760;SDS011;8498;52.516;13.790;2023-02-05T05:26:39;16.20;;;5.27;;
16760;SDS011;8498;52.516;13.790;2023-02-05T05:32:04;10.23;;;4.90;;
16760;SDS011;8498;52.516;13.790;2023-02-05T05:37:26;13.53;;;5.40;;
16760;SDS011;8498;52.516;13.790;2023-02-05T05:42:49;8.60;;;4.83;;
16760;SDS011;8498;52.516;13.790;2023-02-05T05:48:30;15.47;;;4.97;;
16760;SDS011;8498;52.516;13.790;2023-02-05T05:53:52;14.40;;;6.27;;
16760;SDS011;8498;52.516;13.790;2023-02-05T05:59:15;14.87;;;6.60;;
16760;SDS011;8498;52.516;13.790;2023-02-05T06:04:38;11.30;;;6.30;;
16760;SDS011;8498;52.516;13.790;2023-02-05T06:10:00;9.57;;;4.90;;
16760;SDS011;8498;52.516;13.790;2023-02-05T06:15:22;13.63;;;6.20;;
16760;SDS011;8498;52.516;13.790;2023-02-05T06:20:44;10.83;;;5.77;;
16760;SDS011;8498;52.516;13.790;2023-02-05T06:26:07;11.33;;;6.07;;
16760;SDS011;8498;52.516;13.790;2023-02-05T06:31:30;11.60;;;6.43;;
16760;SDS011;8498;52.516;13.790;2023-02-05T06:36:55;13.20;;;6.73;;
16760;SDS011;8498;52.516;13.790;2023-02-05T06:42:18;8.90;;;6.07;;
16760;SDS011;8498;52.516;13.790;2023-02-05T06:47:40;9.47;;;5.53;;
16760;SDS011;8498;52.516;13.790;2023-02-05T06:53:03;15.77;;;6.90;;
16760;SDS011;8498;52.516;13.790;2023-02-05T06:58:25;10.17;;;6.13;;
16760;SDS011;8498;52.516;13.790;2023-02-05T07:03:47;15.97;;;8.67;;
16760;SDS011;8498;52.516;13.790;2023-02-05T07:09:10;12.67;;;6.77;;
16760;SDS011;8498;52.516;13.790;2023-02-05T07:14:38;14.60;;;7.17;;
16760;SDS011;8498;52.516;13.790;2023-02-05T07:20:02;13.07;;;6.80;;
16760;SDS011;8498;52.516;13.790;2023-02-05T07:25:24;9.70;;;6.33;;
16760;SDS011;8498;52.516;13.790;2023-02-05T07:30:47;14.90;;;6.50;;
16760;SDS011;8498;52.516;13.790;2023-02-05T07:36:11;8.17;;;5.80;;
16760;SDS011;8498;52.516;13.790;2023-02-05T07:41:37;10.07;;;5.73;;
16760;SDS011;8498;52.516;13.790;2023-02-05T07:46:59;11.87;;;5.67;;
16760;SDS011;8498;52.516;13.790;2023-02-05T07:52:22;9.20;;;4.63;;
16760;SDS011;8498;52.516;13.790;2023-02-05T07:57:44;5.43;;;4.23;;
16760;SDS011;8498;52.516;13.790;2023-02-05T08:03:07;7.93;;;4.10;;
16760;SDS011;8498;52.516;13.790;2023-02-05T08:08:30;4.57;;;3.60;;
16760;SDS011;8498;52.516;13.790;2023-02-05T08:13:53;5.57;;;3.73;;
16760;SDS011;8498;52.516;13.790;2023-02-05T08:19:16;6.47;;;3.07;;
16760;SDS011;8498;52.516;13.790;2023-02-05T08:24:39;6.50;;;3.33;;
16760;SDS011;8498;52.516;13.790;2023-02-05T08:30:02;5.73;;;3.80;;
16760;SDS011;8498;52.516;13.790;2023-02-05T08:35:26;5.97;;;3.53;;
16760;SDS011;8498;52.516;13.790;2023-02-05T08:40:48;6.57;;;3.40;;
16760;SDS011;8498;52.516;13.790;2023-02-05T08:46:12;13.90;;;4.00;;
16760;SDS011;8498;52.516;13.790;2023-02-05T08:51:36;11.07;;;5.70;;
16760;SDS011;8498;52.516;13.790;2023-02-05T08:56:58;6.83;;;3.73;;
16760;SDS011;8498;52.516;13.790;2023-02-05T09:02:20;7.70;;;3.93;;
16760;SDS011;8498;52.516;13.790;2023-02-05T09:07:43;7.60;;;4.03;;
16760;SDS011;8498;52.516;13.790;2023-02-05T09:13:05;6.07;;;3.80;;
16760;SDS011;8498;52.516;13.790;2023-02-05T09:18:28;11.03;;;4.63;;
16760;SDS011;8498;52.516;13.790;2023-02-05T09:23:50;14.77;;;4.43;;
16760;SDS011;8498;52.516;13.790;2023-02-05T09:29:13;7.57;;;3.83;;
16760;SDS011;8498;52.516;13.790;2023-02-05T09:34:36;5.90;;;3.33;;
16760;SDS011;8498;52.516;13.790;2023-02-05T09:39:58;6.23;;;2.90;;
16760;SDS011;8498;52.516;13.790;2023-02-05T09:51:29;5.03;;;3.23;;
16760;SDS011;8498;52.516;13.790;2023-02-05T09:56:57;6.40;;;2.83;;
16760;SDS011;8498;52.516;13.790;2023-02-05T10:02:30;6.43;;;3.63;;
16760;SDS011;8498;52.516;13.790;2023-02-05T10:13:34;2.67;;;2.47;;
16760;SDS011;8498;52.516;13.790;2023-02-05T10:19:06;6.07;;;2.70;;
16760;SDS011;8498;52.516;13.790;2023-02-05T10:24:53;4.73;;;2.50;;
16760;SDS011;8498;52.516;13.790;2023-02-05T10:30:27;5.63;;;2.70;;
16760;SDS011;8498;52.516;13.790;2023-02-05T10:36:01;2.73;;;2.53;;
16760;SDS011;8498;52.516;13.790;2023-02-05T10:41:33;2.63;;;2.10;;
16760;SDS011;8498;52.516;13.790;2023-02-05T10:53:11;4.20;;;2.90;;
16760;SDS011;8498;52.516;13.790;2023-02-05T10:58:39;4.07;;;2.97;;
16760;SDS011;8498;52.516;13.790;2023-02-05T11:04:04;5.07;;;3.03;;
16760;SDS011;8498;52.516;13.790;2023-02-05T11:09:30;4.50;;;3.23;;
16760;SDS011;8498;52.516;13.790;2023-02-05T11:14:58;2.67;;;2.27;;
16760;SDS011;8498;52.516;13.790;2023-02-05T11:20:26;4.33;;;2.83;;
16760;SDS011;8498;52.516;13.790;2023-02-05T11:25:57;5.47;;;2.53;;
16760;SDS011;8498;52.516;13.790;2023-02-05T11:31:26;2.83;;;2.30;;
16760;SDS011;8498;52.516;13.790;2023-02-05T11:36:54;6.17;;;2.40;;
16760;SDS011;8498;52.516;13.790;2023-02-05T11:42:19;3.50;;;2.47;;
16760;SDS011;8498;52.516;13.790;2023-02-05T11:47:44;4.50;;;2.57;;
16760;SDS011;8498;52.516;13.790;2023-02-05T11:53:08;4.47;;;2.90;;
16760;SDS011;8498;52.516;13.790;2023-02-05T11:58:37;3.10;;;2.50;;
16760;SDS011;8498;52.516;13.790;2023-02-05T12:04:02;2.63;;;2.40;;
16760;SDS011;8498;52.516;13.790;2023-02-05T12:09:33;2.50;;;1.87;;
16760;SDS011;8498;52.516;13.790;2023-02-05T12:15:00;2.40;;;2.20;;
16760;SDS011;8498;52.516;13.790;2023-02-05T12:20:37;4.23;;;3.07;;
16760;SDS011;8498;52.516;13.790;2023-02-05T12:26:30;2.30;;;1.97;;
16760;SDS011;8498;52.516;13.790;2023-02-05T12:38:16;3.73;;;2.30;;
16760;SDS011;8498;52.516;13.790;2023-02-05T12:43:55;4.40;;;2.20;;
16760;SDS011;8498;52.516;13.790;2023-02-05T13:01:43;2.10;;;1.90;;
16760;SDS011;8498;52.516;13.790;2023-02-05T13:12:57;4.23;;;2.60;;
16760;SDS011;8498;52.516;13.790;2023-02-05T13:18:24;3.07;;;2.40;;
16760;SDS011;8498;52.516;13.790;2023-02-05T13:23:55;5.70;;;2.33;;
16760;SDS011;8498;52.516;13.790;2023-02-05T13:29:48;3.20;;;2.37;;
16760;SDS011;8498;52.516;13.790;2023-02-05T13:35:12;2.70;;;2.10;;
16760;SDS011;8498;52.516;13.790;2023-02-05T14:09:00;6.33;;;2.53;;
16760;SDS011;8498;52.516;13.790;2023-02-05T14:14:28;4.27;;;2.20;;
16760;SDS011;8498;52.516;13.790;2023-02-05T14:19:59;2.57;;;2.03;;
16760;SDS011;8498;52.516;13.790;2023-02-05T14:31:03;2.50;;;2.13;;
16760;SDS011;8498;52.516;13.790;2023-02-05T14:36:31;2.57;;;2.17;;
16760;SDS011;8498;52.516;13.790;2023-02-05T14:41:57;4.47;;;2.30;;
16760;SDS011;8498;52.516;13.790;2023-02-05T14:47:22;2.03;;;1.80;;
16760;SDS011;8498;52.516;13.790;2023-02-05T14:53:22;2.10;;;1.70;;
16760;SDS011;8498;52.516;13.790;2023-02-05T14:58:47;2.10;;;2.00;;
16760;SDS011;8498;52.516;13.790;2023-02-05T15:04:22;2.40;;;2.17;;
16760;SDS011;8498;52.516;13.790;2023-02-05T15:09:48;4.37;;;2.40;;
16760;SDS011;8498;52.516;13.790;2023-02-05T15:20:54;7.13;;;3.30;;
16760;SDS011;8498;52.516;13.790;2023-02-05T15:26:20;7.17;;;3.70;;
16760;SDS011;8498;52.516;13.790;2023-02-05T15:31:48;8.30;;;3.40;;
16760;SDS011;8498;52.516;13.790;2023-02-05T15:42:59;5.13;;;2.73;;
16760;SDS011;8498;52.516;13.790;2023-02-05T15:48:31;6.07;;;3.03;;
16760;SDS011;8498;52.516;13.790;2023-02-05T15:53:57;6.40;;;3.63;;
16760;SDS011;8498;52.516;13.790;2023-02-05T15:59:25;5.87;;;3.80;;
16760;SDS011;8498;52.516;13.790;2023-02-05T16:10:16;4.83;;;3.37;;
16760;SDS011;8498;52.516;13.790;2023-02-05T16:21:15;4.30;;;3.30;;
16760;SDS011;8498;52.516;13.790;2023-02-05T16:32:38;10.47;;;4.27;;
16760;SDS011;8498;52.516;13.790;2023-02-05T16:38:03;16.57;;;5.87;;
16760;SDS011;8498;52.516;13.790;2023-02-05T16:43:34;16.90;;;6.53;;
16760;SDS011;8498;52.516;13.790;2023-02-05T16:49:00;7.70;;;4.67;;
16760;SDS011;8498;52.516;13.790;2023-02-05T16:54:27;25.80;;;7.93;;
16760;SDS011;8498;52.516;13.790;2023-02-05T16:59:55;19.93;;;6.70;;
16760;SDS011;8498;52.516;13.790;2023-02-05T17:05:28;15.03;;;5.60;;
16760;SDS011;8498;52.516;13.790;2023-02-05T17:10:54;18.43;;;7.63;;
16760;SDS011;8498;52.516;13.790;2023-02-05T17:16:26;21.33;;;8.87;;
16760;SDS011;8498;52.516;13.790;2023-02-05T17:22:25;14.60;;;7.63;;
16760;SDS011;8498;52.516;13.790;2023-02-05T17:27:40;8.33;;;5.73;;
16760;SDS011;8498;52.516;13.790;2023-02-05T17:33:07;9.50;;;4.93;;
16760;SDS011;8498;52.516;13.790;2023-02-05T17:38:30;8.40;;;4.60;;
16760;SDS011;8498;52.516;13.790;2023-02-05T17:43:54;6.40;;;3.97;;
16760;SDS011;8498;52.516;13.790;2023-02-05T17:49:16;9.73;;;4.90;;
16760;SDS011;8498;52.516;13.790;2023-02-05T17:54:39;8.67;;;4.40;;
16760;SDS011;8498;52.516;13.790;2023-02-05T18:00:03;7.60;;;4.50;;
16760;SDS011;8498;52.516;13.790;2023-02-05T18:05:32;9.13;;;4.80;;
16760;SDS011;8498;52.516;13.790;2023-02-05T18:10:55;9.90;;;5.03;;
16760;SDS011;8498;52.516;13.790;2023-02-05T18:16:17;11.23;;;5.03;;
16760;SDS011;8498;52.516;13.790;2023-02-05T18:21:39;8.90;;;5.00;;
16760;SDS011;8498;52.516;13.790;2023-02-05T18:27:02;13.57;;;7.30;;
16760;SDS011;8498;52.516;13.790;2023-02-05T18:32:25;12.67;;;6.00;;
16760;SDS011;8498;52.516;13.790;2023-02-05T18:37:48;10.70;;;5.83;;
16760;SDS011;8498;52.516;13.790;2023-02-05T18:43:10;12.73;;;6.63;;
16760;SDS011;8498;52.516;13.790;2023-02-05T18:48:34;16.33;;;7.67;;
16760;SDS011;8498;52.516;13.790;2023-02-05T18:53:57;18.80;;;6.50;;
16760;SDS011;8498;52.516;13.790;2023-02-05T18:59:19;12.43;;;6.53;;
16760;SDS011;8498;52.516;13.790;2023-02-05T19:04:44;13.10;;;5.80;;
16760;SDS011;8498;52.516;13.790;2023-02-05T19:10:11;12.53;;;5.73;;
16760;SDS011;8498;52.516;13.790;2023-02-05T19:15:33;7.50;;;4.70;;
16760;SDS011;8498;52.516;13.790;2023-02-05T19:21:01;9.13;;;5.70;;
16760;SDS011;8498;52.516;13.790;2023-02-05T19:26:26;8.10;;;4.37;;
16760;SDS011;8498;52.516;13.790;2023-02-05T19:31:49;9.67;;;5.13;;
16760;SDS011;8498;52.516;13.790;2023-02-05T19:37:14;15.07;;;7.33;;
16760;SDS011;8498;52.516;13.790;2023-02-05T19:42:38;20.00;;;7.23;;
16760;SDS011;8498;52.516;13.790;2023-02-05T19:48:02;10.20;;;6.00;;
16760;SDS011;8498;52.516;13.790;2023-02-05T19:53:26;14.03;;;6.30;;
16760;SDS011;8498;52.516;13.790;2023-02-05T19:58:50;13.50;;;7.00;;
16760;SDS011;8498;52.516;13.790;2023-02-05T20:04:15;21.40;;;9.13;;
16760;SDS011;8498;52.516;13.790;2023-02-05T20:09:39;25.97;;;9.97;;
16760;SDS011;8498;52.516;13.790;2023-02-05T20:15:02;27.50;;;10.30;;
16760;SDS011;8498;52.516;13.790;2023-02-05T20:20:25;21.07;;;8.73;;
16760;SDS011;8498;52.516;13.790;2023-02-05T20:25:55;19.87;;;7.33;;
16760;SDS011;8498;52.516;13.790;2023-02-05T20:31:25;16.07;;;6.90;;
16760;SDS011;8498;52.516;13.790;2023-02-05T20:37:00;10.67;;;6.43;;
16760;SDS011;8498;52.516;13.790;2023-02-05T20:42:25;13.07;;;5.57;;
16760;SDS011;8498;52.516;13.790;2023-02-05T20:47:47;7.80;;;4.53;;
16760;SDS011;8498;52.516;13.790;2023-02-05T20:53:09;13.30;;;4.67;;
16760;SDS011;8498;52.516;13.790;2023-02-05T20:58:32;10.10;;;5.33;;
16760;SDS011;8498;52.516;13.790;2023-02-05T21:03:56;7.63;;;5.47;;
16760;SDS011;8498;52.516;13.790;2023-02-05T21:09:21;10.20;;;6.27;;
16760;SDS011;8498;52.516;13.790;2023-02-05T21:14:43;7.80;;;4.70;;
16760;SDS011;8498;52.516;13.790;2023-02-05T21:20:06;11.27;;;4.63;;
16760;SDS011;8498;52.516;13.790;2023-02-05T21:25:28;9.40;;;5.33;;
16760;SDS011;8498;52.516;13.790;2023-02-05T21:30:51;8.77;;;5.07;;
16760;SDS011;8498;52.516;13.790;2023-02-05T21:36:21;15.10;;;7.60;;
16760;SDS011;8498;52.516;13.790;2023-02-05T21:41:45;17.80;;;6.83;;
16760;SDS011;8498;52.516;13.790;2023-02-05T21:47:08;13.07;;;6.27;;
16760;SDS011;8498;52.516;13.790;2023-02-05T21:52:31;15.23;;;7.37;;
16760;SDS011;8498;52.516;13.790;2023-02-05T21:57:53;13.27;;;6.30;;
16760;SDS011;8498;52.516;13.790;2023-02-05T22:03:15;17.13;;;7.10;;
16760;SDS011;8498;52.516;13.790;2023-02-05T22:08:38;13.83;;;6.97;;
16760;SDS011;8498;52.516;13.790;2023-02-05T22:14:02;15.97;;;6.40;;
16760;SDS011;8498;52.516;13.790;2023-02-05T22:19:24;16.03;;;6.87;;
16760;SDS011;8498;52.516;13.790;2023-02-05T22:24:47;15.87;;;7.77;;
16760;SDS011;8498;52.516;13.790;2023-02-05T22:30:10;28.00;;;9.57;;
16760;SDS011;8498;52.516;13.790;2023-02-05T22:35:33;20.73;;;8.93;;
16760;SDS011;8498;52.516;13.790;2023-02-05T22:40:55;17.00;;;9.13;;
16760;SDS011;8498;52.516;13.790;2023-02-05T22:46:19;25.13;;;8.97;;
16760;SDS011;8498;52.516;13.790;2023-02-05T22:51:43;16.67;;;7.37;;
16760;SDS011;8498;52.516;13.790;2023-02-05T22:57:06;10.83;;;6.13;;
16760;SDS011;8498;52.516;13.790;2023-02-05T23:02:28;11.50;;;5.90;;
16760;SDS011;8498;52.516;13.790;2023-02-05T23:07:51;11.90;;;5.97;;
16760;SDS011;8498;52.516;13.790;2023-02-05T23:13:14;9.13;;;5.27;;
16760;SDS011;8498;52.516;13.790;2023-02-05T23:18:36;11.20;;;5.63;;
16760;SDS011;8498;52.516;13.790;2023-02-05T23:24:00;12.30;;;5.40;;
16760;SDS011;8498;52.516;13.790;2023-02-05T23:29:22;7.53;;;3.83;;
16760;SDS011;8498;52.516;13.790;2023-02-05T23:34:45;9.97;;;5.17;;
16760;SDS011;8498;52.516;13.790;2023-02-05T23:40:07;9.47;;;4.47;;
16760;SDS011;8498;52.516;13.790;2023-02-05T23:45:30;9.67;;;4.40;;
16760;SDS011;8498;52.516;13.790;2023-02-05T23:50:53;11.07;;;5.07;;
16760;SDS011;8498;52.516;13.790;2023-02-05T23:56:18;9.60;;;4.70;;
